Woodland, Mississippi
Current Conditions -  °F | °C
As of 10:55 AM on Thursday 23 Oct 2014 (Local Time) from KSTF Reporting Station
Clear Clear  
Wind Chill: 59°   Ceiling: Unl
Heat Index: 59°   Visibility: 10mi
Dew Point: 45°   Wind: 5mph
Humidity: 59%   Direction: 60°ENE
Pressure: 30.19"   Gusts: NA
Location:  33.78°N, 89.05°W
Report Text: KSTF 231555Z AUTO 06004KT 10SM CLR 15/07 A3019 RMK AO2
Loading
Personal Weather Stations






























Interactive Weather Map New forecast layout! Learn more

10-Day Weather Forecast

Advertisements
Track Severe Weather on mobile